createdAt,value
2022-11-21T00:00:00.485Z,990.60
2022-11-21T00:01:00.518Z,990.55
2022-11-21T00:02:00.532Z,990.57
2022-11-21T00:03:00.455Z,990.58
2022-11-21T00:04:00.453Z,990.55
2022-11-21T00:05:00.478Z,990.57
2022-11-21T00:06:00.442Z,990.54
2022-11-21T00:07:00.482Z,990.49
2022-11-21T00:08:00.408Z,990.49
2022-11-21T00:09:00.423Z,990.52
2022-11-21T00:10:00.399Z,990.48
2022-11-21T00:11:00.401Z,990.35
2022-11-21T00:12:00.353Z,990.39
2022-11-21T00:13:00.350Z,990.38
2022-11-21T00:14:00.340Z,990.37
2022-11-21T00:15:00.357Z,990.31
2022-11-21T00:16:00.336Z,990.29
2022-11-21T00:17:00.328Z,990.28
2022-11-21T00:18:00.290Z,990.26
2022-11-21T00:19:00.290Z,990.26
2022-11-21T00:20:00.270Z,990.30
2022-11-21T00:21:00.285Z,990.31
2022-11-21T00:22:00.269Z,990.25
2022-11-21T00:23:00.278Z,990.25
2022-11-21T00:24:00.268Z,990.24
2022-11-21T00:25:00.222Z,990.20
2022-11-21T00:26:00.208Z,990.22
2022-11-21T00:27:00.220Z,990.24
2022-11-21T00:28:00.200Z,990.18
2022-11-21T00:29:00.218Z,990.17
2022-11-21T00:30:00.164Z,990.19
2022-11-21T00:31:00.163Z,990.12
2022-11-21T00:32:00.148Z,990.17
2022-11-21T00:33:00.140Z,990.13
2022-11-21T00:34:00.147Z,990.10
2022-11-21T00:35:00.122Z,990.11
2022-11-21T00:36:00.100Z,990.11
2022-11-21T00:37:00.086Z,990.02
2022-11-21T00:38:00.083Z,990.09
2022-11-21T00:39:00.095Z,990.01
2022-11-21T00:40:00.116Z,989.96
2022-11-21T00:41:00.039Z,989.96
2022-11-21T00:42:00.029Z,989.96
2022-11-21T00:43:00.018Z,989.96
2022-11-21T00:44:00.005Z,989.91
2022-11-21T00:45:00.029Z,989.97
2022-11-21T00:46:00.008Z,989.87
2022-11-21T00:46:59.972Z,989.84
2022-11-21T00:47:59.967Z,989.90
2022-11-21T00:48:59.952Z,989.84
2022-11-21T00:49:59.973Z,989.85
2022-11-21T00:50:59.938Z,989.83
2022-11-21T00:51:59.941Z,989.80
2022-11-21T00:52:59.911Z,989.67
2022-11-21T00:53:59.899Z,989.67
2022-11-21T00:54:59.928Z,989.64
2022-11-21T00:55:59.879Z,989.73
2022-11-21T00:56:59.891Z,989.64
2022-11-21T00:57:59.853Z,989.69
2022-11-21T00:58:59.844Z,989.65
2022-11-21T00:59:59.837Z,989.65
2022-11-21T01:00:59.847Z,989.68
2022-11-21T01:01:59.831Z,989.75
2022-11-21T01:02:59.815Z,989.63
2022-11-21T01:03:59.789Z,989.65
2022-11-21T01:04:59.786Z,989.60
2022-11-21T01:05:59.775Z,989.59
2022-11-21T01:06:59.843Z,989.61
2022-11-21T01:07:59.760Z,989.58
2022-11-21T01:08:59.764Z,989.54
2022-11-21T01:09:59.722Z,989.55
2022-11-21T01:10:59.714Z,989.53
2022-11-21T01:11:59.725Z,989.48
2022-11-21T01:12:59.712Z,989.48
2022-11-21T01:13:59.738Z,989.45
2022-11-21T01:14:59.689Z,989.48
2022-11-21T01:15:59.668Z,989.41
2022-11-21T01:16:59.715Z,989.40
2022-11-21T01:17:59.680Z,989.35
2022-11-21T01:18:59.674Z,989.36
2022-11-21T01:19:59.643Z,989.33
2022-11-21T01:20:59.640Z,989.37
2022-11-21T01:21:59.635Z,989.30
2022-11-21T01:22:59.584Z,989.32
2022-11-21T01:23:59.570Z,989.29
2022-11-21T01:24:59.597Z,989.26
2022-11-21T01:25:59.582Z,989.29
2022-11-21T01:26:59.540Z,989.28
2022-11-21T01:27:59.528Z,989.24
2022-11-21T01:28:59.548Z,989.30
2022-11-21T01:29:59.523Z,989.28
2022-11-21T01:30:59.527Z,989.21
2022-11-21T01:31:59.532Z,989.29
2022-11-21T01:32:59.470Z,989.29
2022-11-21T01:33:59.464Z,989.26
2022-11-21T01:34:59.452Z,989.22
2022-11-21T01:35:59.459Z,989.23
2022-11-21T01:36:59.464Z,989.23
2022-11-21T01:37:59.451Z,989.18
2022-11-21T01:38:59.406Z,989.22
2022-11-21T01:39:59.399Z,989.20
2022-11-21T01:40:59.395Z,989.21
2022-11-21T01:41:59.406Z,989.19
2022-11-21T01:42:59.381Z,989.23
2022-11-21T01:43:59.400Z,989.17
2022-11-21T01:44:59.359Z,989.14
2022-11-21T01:45:59.334Z,989.15
2022-11-21T01:46:59.328Z,989.18
2022-11-21T01:47:59.312Z,989.17
2022-11-21T01:48:59.321Z,989.14
2022-11-21T01:49:59.327Z,989.18
2022-11-21T01:50:59.278Z,989.22
2022-11-21T01:51:59.274Z,989.20
2022-11-21T01:52:59.264Z,989.18
2022-11-21T01:53:59.277Z,989.16
2022-11-21T01:54:59.259Z,989.16
2022-11-21T01:55:59.268Z,989.20
2022-11-21T01:56:59.214Z,989.18
2022-11-21T01:57:59.199Z,989.19
2022-11-21T01:58:59.202Z,989.14
2022-11-21T01:59:59.214Z,989.16
2022-11-21T02:00:59.278Z,989.19
2022-11-21T02:01:59.180Z,989.14
2022-11-21T02:02:59.162Z,989.18
2022-11-21T02:03:59.238Z,989.06
2022-11-21T02:04:59.138Z,989.02
2022-11-21T02:05:59.138Z,989.00
2022-11-21T02:06:59.183Z,989.01
2022-11-21T02:07:59.150Z,989.04
2022-11-21T02:08:59.086Z,989.00
2022-11-21T02:09:59.069Z,989.00
2022-11-21T02:10:59.065Z,988.97
2022-11-21T02:11:59.048Z,989.03
2022-11-21T02:12:59.055Z,988.98
2022-11-21T02:13:59.061Z,989.06
2022-11-21T02:14:59.027Z,988.97
2022-11-21T02:15:59.005Z,988.94
2022-11-21T02:16:59.042Z,988.98
2022-11-21T02:17:58.994Z,989.02
2022-11-21T02:18:58.981Z,988.97
2022-11-21T02:19:58.978Z,988.95
2022-11-21T02:20:58.949Z,989.00
2022-11-21T02:21:59.007Z,988.96
2022-11-21T02:22:58.936Z,988.94
2022-11-21T02:24:00.449Z,989.02
2022-11-21T02:24:58.944Z,988.92
2022-11-21T02:25:58.916Z,988.98
2022-11-21T02:26:58.901Z,988.97
2022-11-21T02:27:58.879Z,988.94
2022-11-21T02:28:58.888Z,989.00
2022-11-21T02:29:58.852Z,988.92
2022-11-21T02:30:58.872Z,988.99
2022-11-21T02:31:58.875Z,988.91
2022-11-21T02:32:58.886Z,988.90
2022-11-21T02:33:58.818Z,988.96
2022-11-21T02:34:58.827Z,988.95
2022-11-21T02:35:58.832Z,988.88
2022-11-21T02:36:58.793Z,988.86
2022-11-21T02:37:58.778Z,988.87
2022-11-21T02:38:58.754Z,988.88
2022-11-21T02:39:58.754Z,988.91
2022-11-21T02:40:58.733Z,988.89
2022-11-21T02:41:58.743Z,988.92
2022-11-21T02:42:58.749Z,988.89
2022-11-21T02:43:58.711Z,988.95
2022-11-21T02:44:58.732Z,988.86
2022-11-21T02:45:58.697Z,988.86
2022-11-21T02:46:58.709Z,988.87
2022-11-21T02:48:03.651Z,988.83
2022-11-21T02:48:58.665Z,988.85
2022-11-21T02:49:58.647Z,988.87
2022-11-21T02:50:58.623Z,988.83
2022-11-21T02:51:58.635Z,988.86
2022-11-21T02:52:58.601Z,988.86
2022-11-21T02:53:58.601Z,988.86
2022-11-21T02:54:58.599Z,988.82
2022-11-21T02:55:58.620Z,988.85
2022-11-21T02:56:58.561Z,988.86
2022-11-21T02:58:03.203Z,988.82
2022-11-21T02:58:58.543Z,988.80
2022-11-21T02:59:58.539Z,988.81
2022-11-21T03:00:58.604Z,988.81
2022-11-21T03:01:58.514Z,988.75
2022-11-21T03:02:58.505Z,988.85
2022-11-21T03:03:58.508Z,988.82
2022-11-21T03:04:58.488Z,988.84
2022-11-21T03:05:58.474Z,988.84
2022-11-21T03:06:58.537Z,988.93
2022-11-21T03:07:58.454Z,988.89
2022-11-21T03:08:58.462Z,988.89
2022-11-21T03:09:58.443Z,988.87
2022-11-21T03:10:58.409Z,988.84
2022-11-21T03:11:58.410Z,988.85
2022-11-21T03:12:58.418Z,988.87
2022-11-21T03:13:58.386Z,988.87
2022-11-21T03:14:58.363Z,988.84
2022-11-21T03:15:58.355Z,988.89
2022-11-21T03:16:58.341Z,988.87
2022-11-21T03:17:58.349Z,988.86
2022-11-21T03:18:58.354Z,988.86
2022-11-21T03:19:58.332Z,988.86
2022-11-21T03:20:58.324Z,988.88
2022-11-21T03:21:58.292Z,988.97
2022-11-21T03:22:58.279Z,988.92
2022-11-21T03:23:58.297Z,988.92
2022-11-21T03:24:58.292Z,988.89
2022-11-21T03:25:58.293Z,988.84
2022-11-21T03:26:58.245Z,988.88
2022-11-21T03:27:58.256Z,988.87
2022-11-21T03:28:58.216Z,988.85
2022-11-21T03:29:58.218Z,988.86
2022-11-21T03:30:58.195Z,988.82
2022-11-21T03:31:58.182Z,988.85
2022-11-21T03:32:58.208Z,988.82
2022-11-21T03:33:58.192Z,988.84
2022-11-21T03:34:58.169Z,988.86
2022-11-21T03:35:58.158Z,988.86
2022-11-21T03:36:58.144Z,988.90
2022-11-21T03:37:58.120Z,988.84
2022-11-21T03:38:58.122Z,988.89
2022-11-21T03:39:58.115Z,988.91
2022-11-21T03:40:58.124Z,988.83
2022-11-21T03:41:58.092Z,988.89
2022-11-21T03:42:58.092Z,988.83
2022-11-21T03:43:58.055Z,988.86
2022-11-21T03:44:58.052Z,988.91
2022-11-21T03:45:58.037Z,988.84
2022-11-21T03:46:58.042Z,988.92
2022-11-21T03:47:58.018Z,988.86
2022-11-21T03:48:58.028Z,988.84
2022-11-21T03:49:57.992Z,988.87
2022-11-21T03:50:57.988Z,988.87
2022-11-21T03:51:57.982Z,988.85
2022-11-21T03:52:57.984Z,988.87
2022-11-21T03:53:57.972Z,988.88
2022-11-21T03:54:57.970Z,988.92
2022-11-21T03:55:58.005Z,988.91
2022-11-21T03:56:57.922Z,988.93
2022-11-21T03:57:57.914Z,988.93
2022-11-21T03:58:57.938Z,989.00
2022-11-21T03:59:57.891Z,988.95
2022-11-21T04:00:57.886Z,988.97
2022-11-21T04:01:57.922Z,988.96
2022-11-21T04:02:57.845Z,989.00
2022-11-21T04:03:57.881Z,989.02
2022-11-21T04:04:57.852Z,989.06
2022-11-21T04:05:57.817Z,989.10
2022-11-21T04:06:57.803Z,989.15
2022-11-21T04:07:57.790Z,989.14
2022-11-21T04:08:57.834Z,989.18
2022-11-21T04:09:57.781Z,989.22
2022-11-21T04:10:57.769Z,989.15
2022-11-21T04:11:57.782Z,989.10
2022-11-21T04:12:57.741Z,989.14
2022-11-21T04:13:57.747Z,989.10
2022-11-21T04:14:57.733Z,989.17
2022-11-21T04:15:57.732Z,989.14
2022-11-21T04:16:57.718Z,989.09
2022-11-21T04:17:57.720Z,989.05
2022-11-21T04:18:57.728Z,989.09
2022-11-21T04:19:57.731Z,989.10
2022-11-21T04:20:57.669Z,989.13
2022-11-21T04:21:57.694Z,989.11
2022-11-21T04:22:57.648Z,989.09
2022-11-21T04:23:57.652Z,989.15
2022-11-21T04:24:57.660Z,989.19
2022-11-21T04:25:57.631Z,989.21
2022-11-21T04:26:57.585Z,989.19
2022-11-21T04:27:57.587Z,989.22
2022-11-21T04:28:57.578Z,989.23
2022-11-21T04:29:57.590Z,989.23
2022-11-21T04:31:00.613Z,989.29
2022-11-21T04:31:57.574Z,989.23
2022-11-21T04:32:57.524Z,989.28
2022-11-21T04:33:57.542Z,989.29
2022-11-21T04:34:57.515Z,989.30
2022-11-21T04:35:57.496Z,989.36
2022-11-21T04:36:57.611Z,989.34
2022-11-21T04:37:57.488Z,989.39
2022-11-21T04:38:57.502Z,989.42
2022-11-21T04:39:57.473Z,989.45
2022-11-21T04:40:57.463Z,989.42
2022-11-21T04:41:57.425Z,989.41
2022-11-21T04:42:57.465Z,989.47
2022-11-21T04:43:57.424Z,989.45
2022-11-21T04:44:57.392Z,989.48
2022-11-21T04:45:57.400Z,989.47
2022-11-21T04:47:01.048Z,989.45
2022-11-21T04:47:58.430Z,989.51
2022-11-21T04:48:57.354Z,989.52
2022-11-21T04:49:57.363Z,989.52
2022-11-21T04:50:57.327Z,989.54
2022-11-21T04:51:57.334Z,989.56
2022-11-21T04:52:57.343Z,989.55
2022-11-21T04:53:57.297Z,989.59
2022-11-21T04:54:57.300Z,989.58
2022-11-21T04:55:57.293Z,989.68
2022-11-21T04:56:57.281Z,989.63
2022-11-21T04:57:57.298Z,989.64
2022-11-21T04:58:57.278Z,989.64
2022-11-21T04:59:57.231Z,989.66
2022-11-21T05:00:57.279Z,989.70
2022-11-21T05:01:57.209Z,989.67
2022-11-21T05:02:57.202Z,989.74
2022-11-21T05:03:57.219Z,989.75
2022-11-21T05:04:57.206Z,989.74
2022-11-21T05:05:57.167Z,989.65
2022-11-21T05:06:57.160Z,989.69
2022-11-21T05:07:57.143Z,989.77
2022-11-21T05:08:57.180Z,989.74
2022-11-21T05:09:57.136Z,989.71
2022-11-21T05:10:57.110Z,989.74
2022-11-21T05:11:57.110Z,989.74
2022-11-21T05:12:57.116Z,989.74
2022-11-21T05:13:57.081Z,989.71
2022-11-21T05:14:57.100Z,989.81
2022-11-21T05:15:57.081Z,989.82
2022-11-21T05:16:57.049Z,989.76
2022-11-21T05:17:57.056Z,989.75
2022-11-21T05:18:57.058Z,989.72
2022-11-21T05:19:57.049Z,989.79
2022-11-21T05:20:57.037Z,989.85
2022-11-21T05:21:56.997Z,989.81
2022-11-21T05:22:56.984Z,989.82
2022-11-21T05:23:57.016Z,989.88
2022-11-21T05:24:56.967Z,989.87
2022-11-21T05:25:56.958Z,989.86
2022-11-21T05:26:56.952Z,989.87
2022-11-21T05:27:56.973Z,989.90
2022-11-21T05:28:56.938Z,989.89
2022-11-21T05:29:56.959Z,989.95
2022-11-21T05:30:56.899Z,989.93
2022-11-21T05:31:56.893Z,989.94
2022-11-21T05:32:56.876Z,989.99
2022-11-21T05:33:56.869Z,990.07
2022-11-21T05:34:56.863Z,990.06
2022-11-21T05:35:56.865Z,990.08
2022-11-21T05:36:56.834Z,990.09
2022-11-21T05:37:56.852Z,990.14
2022-11-21T05:38:56.813Z,990.09
2022-11-21T05:39:56.812Z,990.13
2022-11-21T05:40:56.848Z,990.09
2022-11-21T05:42:01.498Z,990.10
2022-11-21T05:42:56.773Z,990.10
2022-11-21T05:43:56.768Z,990.10
2022-11-21T05:44:56.767Z,990.13
2022-11-21T05:45:56.777Z,990.13
2022-11-21T05:46:56.729Z,990.11
2022-11-21T05:47:56.809Z,990.13
2022-11-21T05:48:56.707Z,990.19
2022-11-21T05:49:56.703Z,990.17
2022-11-21T05:50:56.687Z,990.20
2022-11-21T05:51:56.679Z,990.24
2022-11-21T05:52:56.670Z,990.33
2022-11-21T05:53:56.677Z,990.32
2022-11-21T05:54:56.651Z,990.35
2022-11-21T05:55:56.660Z,990.35
2022-11-21T05:56:56.623Z,990.35
2022-11-21T05:57:56.604Z,990.37
2022-11-21T05:58:56.601Z,990.39
2022-11-21T05:59:56.631Z,990.37
2022-11-21T06:00:59.756Z,990.43
2022-11-21T06:01:56.566Z,990.40
2022-11-21T06:02:56.689Z,990.46
2022-11-21T06:03:56.540Z,990.45
2022-11-21T06:04:56.527Z,990.50
2022-11-21T06:05:56.563Z,990.55
2022-11-21T06:06:56.532Z,990.54
2022-11-21T06:07:56.534Z,990.57
2022-11-21T06:08:56.499Z,990.67
2022-11-21T06:09:56.491Z,990.60
2022-11-21T06:10:56.498Z,990.71
2022-11-21T06:11:56.473Z,990.73
2022-11-21T06:12:56.461Z,990.72
2022-11-21T06:13:56.430Z,990.76
2022-11-21T06:14:56.422Z,990.78
2022-11-21T06:15:56.451Z,990.80
2022-11-21T06:16:56.414Z,990.89
2022-11-21T06:17:56.402Z,990.86
2022-11-21T06:18:58.634Z,990.88
2022-11-21T06:19:56.366Z,990.87
2022-11-21T06:20:56.376Z,990.94
2022-11-21T06:21:56.378Z,990.97
2022-11-21T06:22:56.332Z,990.98
2022-11-21T06:23:56.331Z,991.01
2022-11-21T06:24:56.312Z,990.98
2022-11-21T06:25:56.301Z,990.97
2022-11-21T06:26:56.318Z,991.05
2022-11-21T06:27:56.283Z,991.01
2022-11-21T06:28:56.272Z,991.03
2022-11-21T06:29:56.301Z,991.04
2022-11-21T06:30:56.250Z,991.06
2022-11-21T06:31:56.284Z,991.07
2022-11-21T06:32:56.290Z,991.04
2022-11-21T06:33:56.220Z,991.11
2022-11-21T06:34:56.218Z,991.11
2022-11-21T06:35:56.212Z,991.13
2022-11-21T06:36:56.232Z,991.10
2022-11-21T06:37:56.176Z,991.15
2022-11-21T06:38:56.194Z,991.19
2022-11-21T06:39:56.188Z,991.27
2022-11-21T06:40:56.138Z,991.27
2022-11-21T06:41:56.158Z,991.32
2022-11-21T06:42:56.153Z,991.40
2022-11-21T06:43:56.112Z,991.33
2022-11-21T06:44:56.116Z,991.35
2022-11-21T06:45:56.084Z,991.40
2022-11-21T06:46:56.099Z,991.42
2022-11-21T06:47:56.070Z,991.43
2022-11-21T06:48:56.181Z,991.47
2022-11-21T06:49:56.049Z,991.48
2022-11-21T06:50:56.030Z,991.48
2022-11-21T06:51:56.024Z,991.49
2022-11-21T06:52:56.016Z,991.49
2022-11-21T06:53:56.058Z,991.56
2022-11-21T06:54:56.001Z,991.53
2022-11-21T06:55:55.986Z,991.58
2022-11-21T06:56:55.992Z,991.60
2022-11-21T06:57:55.965Z,991.62
2022-11-21T06:58:55.977Z,991.59
2022-11-21T06:59:55.935Z,991.58
2022-11-21T07:00:55.955Z,991.59
2022-11-21T07:01:55.927Z,991.60
2022-11-21T07:03:01.630Z,991.61
2022-11-21T07:03:55.966Z,991.63
2022-11-21T07:04:55.895Z,991.64
2022-11-21T07:05:55.869Z,991.65
2022-11-21T07:06:55.855Z,991.72
2022-11-21T07:07:55.869Z,991.66
2022-11-21T07:09:32.253Z,991.76
2022-11-21T07:09:56.845Z,991.71
2022-11-21T07:11:22.997Z,991.78
2022-11-21T07:11:55.810Z,991.81
2022-11-21T07:12:55.794Z,991.77
2022-11-21T07:13:55.821Z,991.81
2022-11-21T07:14:55.802Z,991.80
2022-11-21T07:15:55.757Z,991.82
2022-11-21T07:16:55.749Z,991.89
2022-11-21T07:17:55.741Z,991.84
2022-11-21T07:18:55.727Z,991.83
2022-11-21T07:19:55.841Z,991.84
2022-11-21T07:20:55.733Z,991.89
2022-11-21T07:21:55.695Z,991.88
2022-11-21T07:22:55.688Z,991.96
2022-11-21T07:23:55.805Z,991.90
2022-11-21T07:24:55.666Z,991.92
2022-11-21T07:25:55.691Z,991.95
2022-11-21T07:26:55.696Z,992.00
2022-11-21T07:27:55.628Z,991.98
2022-11-21T07:28:55.622Z,992.08
2022-11-21T07:29:55.617Z,992.04
2022-11-21T07:30:55.601Z,992.06
2022-11-21T07:31:55.627Z,992.05
2022-11-21T07:32:55.573Z,992.02
2022-11-21T07:33:55.561Z,992.03
2022-11-21T07:34:55.571Z,992.07
2022-11-21T07:35:55.557Z,992.03
2022-11-21T07:36:55.571Z,992.05
2022-11-21T07:37:55.544Z,992.10
2022-11-21T07:38:55.542Z,992.05
2022-11-21T07:39:56.365Z,992.09
2022-11-21T07:40:55.507Z,992.10
2022-11-21T07:41:55.514Z,992.15
2022-11-21T07:42:55.487Z,992.10
2022-11-21T07:43:55.481Z,992.15
2022-11-21T07:44:55.443Z,992.19
2022-11-21T07:45:55.442Z,992.18
2022-11-21T07:46:55.432Z,992.17
2022-11-21T07:47:55.409Z,992.22
2022-11-21T07:48:59.343Z,992.21
2022-11-21T07:49:55.412Z,992.27
2022-11-21T07:50:55.421Z,992.25
2022-11-21T07:51:55.365Z,992.25
2022-11-21T07:52:55.375Z,992.24
2022-11-21T07:53:55.434Z,992.28
2022-11-21T07:54:55.364Z,992.24
2022-11-21T07:55:55.341Z,992.36
2022-11-21T07:56:55.331Z,992.33
2022-11-21T07:57:55.302Z,992.31
2022-11-21T07:58:55.291Z,992.30
2022-11-21T07:59:55.279Z,992.37
2022-11-21T08:00:55.293Z,992.33
2022-11-21T08:01:55.270Z,992.41
2022-11-21T08:02:55.257Z,992.37
2022-11-21T08:03:55.300Z,992.38
2022-11-21T08:04:55.231Z,992.38
2022-11-21T08:05:55.224Z,992.41
2022-11-21T08:06:55.229Z,992.37
2022-11-21T08:07:55.200Z,992.34
2022-11-21T08:08:55.351Z,992.42
2022-11-21T08:09:55.188Z,992.47
2022-11-21T08:10:55.160Z,992.39
2022-11-21T08:11:55.161Z,992.44
2022-11-21T08:12:55.160Z,992.46
2022-11-21T08:13:55.129Z,992.48
2022-11-21T08:14:55.176Z,992.48
2022-11-21T08:15:55.122Z,992.46
2022-11-21T08:16:55.095Z,992.49
2022-11-21T08:17:55.098Z,992.52
2022-11-21T08:18:55.118Z,992.51
2022-11-21T08:19:55.070Z,992.52
2022-11-21T08:20:55.062Z,992.56
2022-11-21T08:21:55.056Z,992.61
2022-11-21T08:22:55.180Z,992.54
2022-11-21T08:23:55.050Z,992.54
2022-11-21T08:24:55.145Z,992.55
2022-11-21T08:25:55.041Z,992.54
2022-11-21T08:26:54.986Z,992.56
2022-11-21T08:27:54.985Z,992.52
2022-11-21T08:28:59.785Z,992.54
2022-11-21T08:29:55.739Z,992.51
2022-11-21T08:30:54.944Z,992.50
2022-11-21T08:31:54.988Z,992.47
2022-11-21T08:32:54.933Z,992.48
2022-11-21T08:33:54.936Z,992.50
2022-11-21T08:34:54.917Z,992.52
2022-11-21T08:35:54.932Z,992.58
2022-11-21T08:36:54.921Z,992.61
2022-11-21T08:37:54.925Z,992.55
2022-11-21T08:38:54.884Z,992.59
2022-11-21T08:39:54.866Z,992.59
2022-11-21T08:40:54.921Z,992.64
2022-11-21T08:41:54.849Z,992.65
2022-11-21T08:42:54.817Z,992.68
2022-11-21T08:43:54.878Z,992.73
2022-11-21T08:44:54.928Z,992.73
2022-11-21T08:45:54.808Z,992.71
2022-11-21T08:46:54.822Z,992.77
2022-11-21T08:47:54.797Z,992.72
2022-11-21T08:48:54.755Z,992.77
2022-11-21T08:49:54.752Z,992.80
2022-11-21T08:50:54.730Z,992.71
2022-11-21T08:51:54.812Z,992.78
2022-11-21T08:52:54.793Z,992.72
2022-11-21T08:53:54.702Z,992.76
2022-11-21T08:54:54.691Z,992.72
2022-11-21T08:55:54.681Z,992.70
2022-11-21T08:56:54.745Z,992.74
2022-11-21T08:57:54.661Z,992.77
2022-11-21T08:58:54.656Z,992.71
2022-11-21T08:59:54.646Z,992.76
2022-11-21T09:00:54.665Z,992.72
2022-11-21T09:01:54.629Z,992.72
2022-11-21T09:02:54.660Z,992.77
2022-11-21T09:03:54.593Z,992.75
2022-11-21T09:04:54.586Z,992.76
2022-11-21T09:05:54.626Z,992.75
2022-11-21T09:06:54.558Z,992.75
2022-11-21T09:07:54.547Z,992.72
2022-11-21T09:08:54.547Z,992.76
2022-11-21T09:09:54.584Z,992.79
2022-11-21T09:10:54.515Z,992.84
2022-11-21T09:11:54.528Z,992.80
2022-11-21T09:12:54.507Z,992.79
2022-11-21T09:13:54.508Z,992.79
2022-11-21T09:14:54.544Z,992.85
2022-11-21T09:15:54.489Z,992.84
2022-11-21T09:16:59.214Z,992.83
2022-11-21T09:17:54.454Z,992.83
2022-11-21T09:18:54.431Z,992.87
2022-11-21T09:19:54.526Z,992.92
2022-11-21T09:20:54.447Z,992.92
2022-11-21T09:21:54.394Z,992.95
2022-11-21T09:22:54.388Z,992.94
2022-11-21T09:23:54.385Z,992.97
2022-11-21T09:24:54.374Z,992.98
2022-11-21T09:25:54.397Z,992.96
2022-11-21T09:26:54.427Z,992.97
2022-11-21T09:27:54.332Z,992.91
2022-11-21T09:28:54.445Z,992.98
2022-11-21T09:29:54.530Z,992.98
2022-11-21T09:30:54.312Z,992.97
2022-11-21T09:31:54.701Z,992.99
2022-11-21T09:32:54.298Z,993.03
2022-11-21T09:33:55.259Z,993.04
2022-11-21T09:34:54.272Z,993.08
2022-11-21T09:35:54.277Z,993.07
2022-11-21T09:36:54.234Z,993.11
2022-11-21T09:37:54.237Z,993.08
2022-11-21T09:38:54.240Z,993.14
2022-11-21T09:39:54.247Z,993.14
2022-11-21T09:40:54.209Z,993.16
2022-11-21T09:41:54.250Z,993.14
2022-11-21T09:42:54.167Z,993.15
2022-11-21T09:43:55.854Z,993.15
2022-11-21T09:44:54.202Z,993.11
2022-11-21T09:45:54.137Z,993.07
2022-11-21T09:46:54.147Z,993.12
2022-11-21T09:47:54.185Z,993.15
2022-11-21T09:48:54.110Z,993.08
2022-11-21T09:49:54.102Z,993.06
2022-11-21T09:50:54.265Z,993.09
2022-11-21T09:51:54.069Z,993.08
2022-11-21T09:52:54.087Z,993.08
2022-11-21T09:53:54.081Z,993.01
2022-11-21T09:54:54.037Z,993.09
2022-11-21T09:55:54.058Z,993.03
2022-11-21T09:56:54.050Z,993.01
2022-11-21T09:57:54.002Z,993.09
2022-11-21T09:58:54.020Z,993.04
2022-11-21T09:59:53.987Z,993.05
2022-11-21T10:00:54.119Z,993.01
2022-11-21T10:01:53.988Z,993.09
2022-11-21T10:02:53.993Z,993.03
2022-11-21T10:03:53.945Z,993.08
2022-11-21T10:04:53.964Z,993.09
2022-11-21T10:05:53.926Z,993.07
2022-11-21T10:06:53.964Z,993.10
2022-11-21T10:07:53.974Z,993.13
2022-11-21T10:08:53.930Z,993.16
2022-11-21T10:09:53.876Z,993.19
2022-11-21T10:10:53.883Z,993.18
2022-11-21T10:11:53.857Z,993.23
2022-11-21T10:12:53.847Z,993.19
2022-11-21T10:13:53.863Z,993.23
2022-11-21T10:14:53.863Z,993.18
2022-11-21T10:15:53.816Z,993.18
2022-11-21T10:16:53.819Z,993.23
2022-11-21T10:17:53.800Z,993.17
2022-11-21T10:18:53.844Z,993.20
2022-11-21T10:19:53.771Z,993.19
2022-11-21T10:20:53.811Z,993.16
2022-11-21T10:21:53.760Z,993.29
2022-11-21T10:22:53.754Z,993.28
2022-11-21T10:23:53.769Z,993.23
2022-11-21T10:24:53.745Z,993.18
2022-11-21T10:25:53.745Z,993.22
2022-11-21T10:26:53.693Z,993.13
2022-11-21T10:27:53.690Z,993.18
2022-11-21T10:28:53.713Z,993.09
2022-11-21T10:29:53.690Z,993.15
2022-11-21T10:30:53.663Z,993.14
2022-11-21T10:31:53.670Z,993.13
2022-11-21T10:32:53.645Z,993.16
2022-11-21T10:33:53.635Z,993.20
2022-11-21T10:34:53.640Z,993.12
2022-11-21T10:35:53.670Z,993.14
2022-11-21T10:36:53.614Z,993.12
2022-11-21T10:37:53.641Z,993.11
2022-11-21T10:38:53.598Z,993.11
2022-11-21T10:39:53.551Z,993.06
2022-11-21T10:40:53.587Z,993.11
2022-11-21T10:41:53.574Z,993.06
2022-11-21T10:42:53.614Z,993.09
2022-11-21T10:43:53.553Z,993.08
2022-11-21T10:44:53.530Z,993.11
2022-11-21T10:45:53.529Z,993.12
2022-11-21T10:46:53.559Z,993.14
2022-11-21T10:47:53.477Z,993.08
2022-11-21T10:48:53.510Z,993.08
2022-11-21T10:49:53.443Z,993.09
2022-11-21T10:50:53.434Z,993.10
2022-11-21T10:51:53.425Z,993.01
2022-11-21T10:52:53.446Z,993.00
2022-11-21T10:53:53.410Z,993.01
2022-11-21T10:54:53.495Z,992.99
2022-11-21T10:55:53.379Z,993.02
2022-11-21T10:56:53.418Z,992.93
2022-11-21T10:57:53.359Z,992.92
2022-11-21T10:58:53.388Z,992.89
2022-11-21T10:59:53.376Z,992.91
2022-11-21T11:00:53.560Z,992.95
2022-11-21T11:01:53.338Z,992.90
2022-11-21T11:02:53.302Z,992.91
2022-11-21T11:04:20.742Z,992.91
2022-11-21T11:04:54.693Z,992.93
2022-11-21T11:05:53.338Z,992.91
2022-11-21T11:06:53.286Z,992.94
2022-11-21T11:07:53.301Z,992.89
2022-11-21T11:08:53.245Z,992.86
2022-11-21T11:09:53.258Z,992.84
2022-11-21T11:10:53.239Z,992.86
2022-11-21T11:11:53.270Z,992.75
2022-11-21T11:12:53.207Z,992.82
2022-11-21T11:13:53.218Z,992.84
2022-11-21T11:14:53.184Z,992.80
2022-11-21T11:15:53.176Z,992.82
2022-11-21T11:16:53.148Z,992.86
2022-11-21T11:17:53.148Z,992.85
2022-11-21T11:18:53.136Z,992.82
2022-11-21T11:19:53.153Z,992.85
2022-11-21T11:20:53.175Z,992.86
2022-11-21T11:21:53.117Z,992.84
2022-11-21T11:22:53.090Z,992.93
2022-11-21T11:23:53.142Z,992.89
2022-11-21T11:24:56.224Z,992.87
2022-11-21T11:25:53.135Z,992.83
2022-11-21T11:26:53.063Z,992.86
2022-11-21T11:27:53.286Z,992.80
2022-11-21T11:28:53.059Z,992.81
2022-11-21T11:29:53.325Z,992.82
2022-11-21T11:30:53.025Z,992.83
2022-11-21T11:31:52.986Z,992.77
2022-11-21T11:32:52.986Z,992.78
2022-11-21T11:33:52.966Z,992.76
2022-11-21T11:34:52.960Z,992.80
2022-11-21T11:35:53.001Z,992.81
2022-11-21T11:36:52.951Z,992.79
2022-11-21T11:37:52.983Z,992.72
2022-11-21T11:38:52.925Z,992.72
2022-11-21T11:39:52.898Z,992.69
2022-11-21T11:40:52.885Z,992.70
2022-11-21T11:41:52.883Z,992.72
2022-11-21T11:42:52.899Z,992.71
2022-11-21T11:43:52.878Z,992.73
2022-11-21T11:44:52.870Z,992.81
2022-11-21T11:45:52.830Z,992.78
2022-11-21T11:46:52.843Z,992.75
2022-11-21T11:47:54.877Z,992.73
2022-11-21T11:49:52.821Z,992.75
2022-11-21T11:50:52.817Z,992.70
2022-11-21T11:51:52.810Z,992.68
2022-11-21T11:52:52.784Z,992.72
2022-11-21T11:53:55.193Z,992.69
2022-11-21T11:54:52.740Z,992.67
2022-11-21T11:55:52.751Z,992.72
2022-11-21T11:56:52.730Z,992.72
2022-11-21T11:57:52.758Z,992.76
2022-11-21T11:58:52.691Z,992.74
2022-11-21T11:59:52.691Z,992.73
2022-11-21T12:00:52.679Z,992.72
2022-11-21T12:01:52.796Z,992.70
2022-11-21T12:02:52.682Z,992.71
2022-11-21T12:03:57.825Z,992.81
2022-11-21T12:04:52.631Z,992.83
2022-11-21T12:05:52.624Z,992.74
2022-11-21T12:07:54.027Z,992.79
2022-11-21T12:08:39.602Z,992.82
2022-11-21T12:08:53.794Z,992.82
2022-11-21T12:09:52.570Z,992.84
2022-11-21T12:10:52.556Z,992.82
2022-11-21T12:11:52.555Z,992.82
2022-11-21T12:12:52.541Z,992.82
2022-11-21T12:13:52.556Z,992.84
2022-11-21T12:14:52.512Z,992.73
2022-11-21T12:15:52.507Z,992.73
2022-11-21T12:16:52.490Z,992.68
2022-11-21T12:17:52.527Z,992.63
2022-11-21T12:18:52.475Z,992.63
2022-11-21T12:19:52.465Z,992.65
2022-11-21T12:20:52.453Z,992.61
2022-11-21T12:21:52.442Z,992.61
2022-11-21T12:22:52.457Z,992.60
2022-11-21T12:23:52.452Z,992.66
2022-11-21T12:24:52.427Z,992.62
2022-11-21T12:25:52.436Z,992.68
2022-11-21T12:26:52.393Z,992.67
2022-11-21T12:27:52.368Z,992.63
2022-11-21T12:28:52.398Z,992.61